createdAt,value
2019-05-17T00:00:37.481Z,20.43
2019-05-17T00:03:09.113Z,20.50
2019-05-17T00:05:37.913Z,20.65
2019-05-17T00:08:07.713Z,21.52
2019-05-17T00:10:37.651Z,20.37
2019-05-17T00:13:07.605Z,21.77
2019-05-17T00:15:36.987Z,20.10
2019-05-17T00:18:06.643Z,20.05
2019-05-17T00:20:37.448Z,18.77
2019-05-17T00:23:07.068Z,19.60
2019-05-17T00:25:36.865Z,19.02
2019-05-17T00:28:07.279Z,19.40
2019-05-17T00:30:37.294Z,19.32
2019-05-17T00:33:07.732Z,20.12
2019-05-17T00:35:37.758Z,19.15
2019-05-17T00:38:06.959Z,20.15
2019-05-17T00:40:36.580Z,20.35
2019-05-17T00:43:06.756Z,19.48
2019-05-17T00:45:37.740Z,20.50
2019-05-17T00:48:06.659Z,20.52
2019-05-17T00:50:37.908Z,21.73
2019-05-17T00:53:07.379Z,20.95
2019-05-17T00:55:36.626Z,21.57
2019-05-17T00:58:06.697Z,21.55
2019-05-17T01:00:37.591Z,19.80
2019-05-17T01:03:07.228Z,21.30
2019-05-17T01:05:36.865Z,20.75
2019-05-17T01:08:07.247Z,20.65
2019-05-17T01:10:37.022Z,21.68
2019-05-17T01:13:06.776Z,20.55
2019-05-17T01:15:36.845Z,20.50
2019-05-17T01:18:07.340Z,20.08
2019-05-17T01:20:37.184Z,20.20
2019-05-17T01:23:07.629Z,19.98
2019-05-17T01:25:37.174Z,19.57
2019-05-17T01:28:07.547Z,19.23
2019-05-17T01:30:37.443Z,19.73
2019-05-17T01:33:06.866Z,20.48
2019-05-17T01:35:37.526Z,19.75
2019-05-17T01:38:07.281Z,19.12
2019-05-17T01:40:37.223Z,20.95
2019-05-17T01:43:07.901Z,20.15
2019-05-17T01:45:36.823Z,19.35
2019-05-17T01:48:07.312Z,20.82
2019-05-17T01:50:37.431Z,20.10
2019-05-17T01:53:07.410Z,20.75
2019-05-17T01:55:56.789Z,21.02
2019-05-17T01:58:26.970Z,20.95
2019-05-17T02:00:57.361Z,24.55
2019-05-17T02:03:26.798Z,22.40
2019-05-17T02:05:56.670Z,26.00
2019-05-17T02:08:26.477Z,25.97
2019-05-17T02:10:57.341Z,27.00
2019-05-17T02:13:26.812Z,26.20
2019-05-17T02:15:56.494Z,27.95
2019-05-17T02:18:26.616Z,27.17
2019-05-17T02:20:57.039Z,29.35
2019-05-17T02:23:27.021Z,29.05
2019-05-17T02:25:57.141Z,27.40
2019-05-17T02:28:26.125Z,28.47
2019-05-17T02:30:55.280Z,29.77
2019-05-17T02:33:24.337Z,31.25
2019-05-17T02:35:53.624Z,32.88
2019-05-17T02:38:22.602Z,31.57
2019-05-17T02:40:53.536Z,31.87
2019-05-17T02:43:23.543Z,30.43
2019-05-17T02:45:52.940Z,30.65
2019-05-17T02:48:23.343Z,32.50
2019-05-17T02:50:53.230Z,28.02
2019-05-17T02:53:22.974Z,29.63
2019-05-17T02:55:53.913Z,29.37
2019-05-17T02:58:23.318Z,30.35
2019-05-17T03:00:53.207Z,28.57
2019-05-17T03:03:23.747Z,28.45
2019-05-17T03:05:53.583Z,30.45
2019-05-17T03:08:23.659Z,31.85
2019-05-17T03:10:53.435Z,34.25
2019-05-17T03:13:23.406Z,30.77
2019-05-17T03:15:52.895Z,32.53
2019-05-17T03:18:22.928Z,31.90
2019-05-17T03:20:52.650Z,32.30
2019-05-17T03:23:23.521Z,32.05
2019-05-17T03:25:52.642Z,34.60
2019-05-17T03:28:23.554Z,32.33
2019-05-17T03:30:56.474Z,34.50
2019-05-17T03:33:26.471Z,33.50
2019-05-17T03:35:56.872Z,35.40
2019-05-17T03:38:26.042Z,36.53
2019-05-17T03:41:14.086Z,31.57
2019-05-17T03:43:25.175Z,32.42
2019-05-17T03:45:53.873Z,34.75
2019-05-17T03:48:22.650Z,33.55
2019-05-17T03:50:53.084Z,34.90
2019-05-17T03:53:22.912Z,34.75
2019-05-17T03:55:54.013Z,35.20
2019-05-17T03:58:23.442Z,35.65
2019-05-17T04:00:53.395Z,37.80
2019-05-17T04:03:23.113Z,37.40
2019-05-17T04:05:53.041Z,40.48
2019-05-17T04:08:22.879Z,36.80
2019-05-17T04:10:52.938Z,36.80
2019-05-17T04:13:23.389Z,36.60
2019-05-17T04:15:52.977Z,40.52
2019-05-17T04:18:23.394Z,38.67
2019-05-17T04:20:52.917Z,38.55
2019-05-17T04:23:23.190Z,41.65
2019-05-17T04:26:03.826Z,36.48
2019-05-17T04:28:33.494Z,39.45
2019-05-17T04:31:02.875Z,41.77
2019-05-17T04:33:33.776Z,39.27
2019-05-17T04:36:02.741Z,38.53
2019-05-17T04:38:33.181Z,40.70
2019-05-17T04:41:03.287Z,43.20
2019-05-17T04:43:33.632Z,44.53
2019-05-17T04:46:03.008Z,42.20
2019-05-17T04:48:32.644Z,41.33
2019-05-17T04:51:03.104Z,39.48
2019-05-17T04:53:32.765Z,40.03
2019-05-17T04:56:03.150Z,40.65
2019-05-17T04:58:33.479Z,37.88
2019-05-17T05:01:04.049Z,38.13
2019-05-17T05:03:33.235Z,40.80
2019-05-17T05:06:03.065Z,42.00
2019-05-17T05:08:32.993Z,40.12
2019-05-17T05:11:03.946Z,37.98
2019-05-17T05:13:33.373Z,37.85
2019-05-17T05:16:02.935Z,37.00
2019-05-17T05:18:32.673Z,36.98
2019-05-17T05:21:03.659Z,37.03
2019-05-17T05:23:32.028Z,37.95
2019-05-17T05:26:02.962Z,37.13
2019-05-17T05:28:31.773Z,40.40
2019-05-17T05:31:01.943Z,35.25
2019-05-17T05:33:33.263Z,35.92
2019-05-17T05:36:02.203Z,34.60
2019-05-17T05:38:31.954Z,32.03
2019-05-17T05:41:01.793Z,35.33
2019-05-17T05:43:32.711Z,35.33
2019-05-17T05:46:02.556Z,33.58
2019-05-17T05:48:32.677Z,32.10
2019-05-17T05:51:03.975Z,33.50
2019-05-17T05:53:32.578Z,34.92
2019-05-17T05:56:03.302Z,34.90
2019-05-17T05:58:32.219Z,33.58
2019-05-17T06:01:02.341Z,33.53
2019-05-17T06:03:32.039Z,34.58
2019-05-17T06:06:01.872Z,31.87
2019-05-17T06:08:32.288Z,33.95
2019-05-17T06:11:02.248Z,34.58
2019-05-17T06:13:32.519Z,35.10
2019-05-17T06:16:02.630Z,34.90
2019-05-17T06:18:31.974Z,35.73
2019-05-17T06:21:03.126Z,35.63
2019-05-17T06:23:33.868Z,32.28
2019-05-17T06:26:04.112Z,33.75
2019-05-17T06:28:32.841Z,32.60
2019-05-17T06:31:02.870Z,32.03
2019-05-17T06:33:34.536Z,33.33
2019-05-17T06:36:02.760Z,32.53
2019-05-17T06:38:32.884Z,30.65
2019-05-17T06:41:01.822Z,32.28
2019-05-17T06:43:32.314Z,32.58
2019-05-17T06:46:01.739Z,32.78
2019-05-17T06:48:31.890Z,30.37
2019-05-17T06:51:02.656Z,31.97
2019-05-17T06:53:32.309Z,31.65
2019-05-17T06:56:02.608Z,33.35
2019-05-17T06:58:33.512Z,30.52
2019-05-17T07:01:02.253Z,30.57
2019-05-17T07:03:30.894Z,29.60
2019-05-17T07:06:01.247Z,27.60
2019-05-17T07:08:30.046Z,26.50
2019-05-17T07:10:59.718Z,26.77
2019-05-17T07:13:30.062Z,25.88
2019-05-17T07:15:59.686Z,24.37
2019-05-17T07:18:30.142Z,22.75
2019-05-17T07:21:02.929Z,21.97
2019-05-17T07:23:30.311Z,21.42
2019-05-17T07:25:59.657Z,16.50
2019-05-17T07:28:30.212Z,15.90
2019-05-17T07:30:59.738Z,16.42
2019-05-17T07:33:30.601Z,16.50
2019-05-17T07:35:59.518Z,14.70
2019-05-17T07:38:30.327Z,14.25
2019-05-17T07:40:59.535Z,14.20
2019-05-17T07:43:29.835Z,16.02
2019-05-17T07:46:00.412Z,15.45
2019-05-17T07:48:31.420Z,14.25
2019-05-17T07:50:59.610Z,14.85
2019-05-17T07:53:30.501Z,14.05
2019-05-17T07:55:59.643Z,15.18
2019-05-17T07:58:30.010Z,16.48
2019-05-17T08:01:01.573Z,14.07
2019-05-17T08:03:29.923Z,14.03
2019-05-17T08:06:00.104Z,14.68
2019-05-17T08:08:31.109Z,12.90
2019-05-17T08:11:00.369Z,13.62
2019-05-17T08:13:32.991Z,14.53
2019-05-17T08:15:59.633Z,15.68
2019-05-17T08:18:29.611Z,15.08
2019-05-17T08:20:59.791Z,14.68
2019-05-17T08:23:30.465Z,16.32
2019-05-17T08:26:00.412Z,15.93
2019-05-17T08:28:31.217Z,15.43
2019-05-17T08:31:01.147Z,13.72
2019-05-17T08:33:30.757Z,14.13
2019-05-17T08:36:00.601Z,13.00
2019-05-17T08:38:30.587Z,12.75
2019-05-17T08:41:00.664Z,14.45
2019-05-17T08:43:39.892Z,13.15
2019-05-17T08:46:02.194Z,12.82
2019-05-17T08:48:30.447Z,12.80
2019-05-17T08:51:00.135Z,14.00
2019-05-17T08:53:30.553Z,12.82
2019-05-17T08:56:00.975Z,13.13
2019-05-17T08:58:30.509Z,13.70
2019-05-17T09:01:00.228Z,13.18
2019-05-17T09:03:30.308Z,13.72
2019-05-17T09:06:02.365Z,13.40
2019-05-17T09:08:29.896Z,12.95
2019-05-17T09:11:00.395Z,12.43
2019-05-17T09:13:29.923Z,12.05
2019-05-17T09:16:00.350Z,11.55
2019-05-17T09:18:30.196Z,11.97
2019-05-17T09:21:00.388Z,12.28
2019-05-17T09:23:30.398Z,11.88
2019-05-17T09:26:00.424Z,12.73
2019-05-17T09:28:29.982Z,11.12
2019-05-17T09:30:59.945Z,12.25
2019-05-17T09:33:30.073Z,12.78
2019-05-17T09:36:00.790Z,12.28
2019-05-17T09:38:29.637Z,12.70
2019-05-17T09:41:00.034Z,12.53
2019-05-17T09:43:29.498Z,12.05
2019-05-17T09:46:01.203Z,12.85
2019-05-17T09:48:30.617Z,11.85
2019-05-17T09:50:59.942Z,10.58
2019-05-17T09:53:30.722Z,10.38
2019-05-17T09:56:00.502Z,11.15
2019-05-17T09:58:30.024Z,9.60
2019-05-17T10:01:01.460Z,9.65
2019-05-17T10:03:30.753Z,7.95
2019-05-17T10:06:00.147Z,9.85
2019-05-17T10:08:28.854Z,9.05
2019-05-17T10:11:06.073Z,8.88
2019-05-17T10:13:27.875Z,8.68
2019-05-17T10:15:56.634Z,9.35
2019-05-17T10:18:25.413Z,9.20
2019-05-17T10:20:54.104Z,8.50
2019-05-17T10:23:22.891Z,8.28
2019-05-17T10:25:51.538Z,8.40
2019-05-17T10:28:20.657Z,7.65
2019-05-17T10:30:52.164Z,8.78
2019-05-17T10:33:20.740Z,7.33
2019-05-17T10:35:49.737Z,7.47
2019-05-17T10:38:19.499Z,7.17
2019-05-17T10:40:50.022Z,7.75
2019-05-17T10:43:20.464Z,7.30
2019-05-17T10:45:49.275Z,7.65
2019-05-17T10:48:20.975Z,7.70
2019-05-17T10:50:49.664Z,7.92
2019-05-17T10:53:20.393Z,7.42
2019-05-17T10:55:49.814Z,7.37
2019-05-17T10:58:21.144Z,7.12
2019-05-17T11:00:50.105Z,7.37
2019-05-17T11:03:20.365Z,7.78
2019-05-17T11:05:50.410Z,7.90
2019-05-17T11:08:19.744Z,8.90
2019-05-17T11:10:50.216Z,8.15
2019-05-17T11:13:18.989Z,7.78
2019-05-17T11:15:47.757Z,8.25
2019-05-17T11:18:16.401Z,8.23
2019-05-17T11:20:46.423Z,7.03
2019-05-17T11:23:15.589Z,7.65
2019-05-17T11:25:46.261Z,7.40
2019-05-17T11:28:14.546Z,7.65
2019-05-17T11:30:44.000Z,7.72
2019-05-17T11:33:12.817Z,8.35
2019-05-17T11:35:41.526Z,8.50
2019-05-17T11:38:10.170Z,7.83
2019-05-17T11:40:38.951Z,8.20
2019-05-17T11:43:07.570Z,8.35
2019-05-17T11:45:36.311Z,7.62
2019-05-17T11:48:05.009Z,6.90
2019-05-17T11:50:33.753Z,7.28
2019-05-17T11:53:02.454Z,7.35
2019-05-17T11:55:31.103Z,7.45
2019-05-17T11:57:59.721Z,7.45
2019-05-17T12:00:29.558Z,6.87
2019-05-17T12:02:58.244Z,6.62
2019-05-17T12:05:26.873Z,6.05
2019-05-17T12:07:55.584Z,7.30
2019-05-17T12:10:24.334Z,6.70
2019-05-17T12:12:53.094Z,6.28
2019-05-17T12:15:21.857Z,7.05
2019-05-17T12:17:50.635Z,7.12
2019-05-17T12:20:19.837Z,7.25
2019-05-17T12:22:48.593Z,7.33
2019-05-17T12:25:19.009Z,7.75
2019-05-17T12:27:47.689Z,7.78
2019-05-17T12:30:17.734Z,8.00
2019-05-17T12:32:46.396Z,7.53
2019-05-17T12:35:15.163Z,7.90
2019-05-17T12:37:43.778Z,7.78
2019-05-17T12:40:13.072Z,7.62
2019-05-17T12:42:41.767Z,7.70
2019-05-17T12:45:10.864Z,8.25
2019-05-17T12:47:39.597Z,8.20
2019-05-17T12:50:10.366Z,7.50
2019-05-17T12:52:40.147Z,7.53
2019-05-17T12:55:09.424Z,7.37
2019-05-17T12:57:38.123Z,7.40
2019-05-17T13:00:09.234Z,7.40
2019-05-17T13:02:37.968Z,6.75
2019-05-17T13:05:06.926Z,6.10
2019-05-17T13:07:35.574Z,6.83
2019-05-17T13:10:08.810Z,6.35
2019-05-17T13:12:37.545Z,6.62
2019-05-17T13:15:07.462Z,7.10
2019-05-17T13:17:36.070Z,7.50
2019-05-17T13:20:06.876Z,7.50
2019-05-17T13:22:35.729Z,7.12
2019-05-17T13:25:07.484Z,7.40
2019-05-17T13:27:39.009Z,7.50
2019-05-17T13:30:10.531Z,7.70
2019-05-17T13:32:39.305Z,7.47
2019-05-17T13:35:11.448Z,6.10
2019-05-17T13:37:40.298Z,7.83
2019-05-17T13:40:09.763Z,9.08
2019-05-17T13:42:38.629Z,8.15
2019-05-17T13:45:07.846Z,8.13
2019-05-17T13:47:36.611Z,7.40
2019-05-17T13:50:09.149Z,7.87
2019-05-17T13:52:37.975Z,8.15
2019-05-17T13:55:07.578Z,7.87
2019-05-17T13:57:36.346Z,8.73
2019-05-17T14:00:08.809Z,8.63
2019-05-17T14:02:37.599Z,9.15
2019-05-17T14:05:07.830Z,8.18
2019-05-17T14:07:36.618Z,8.33
2019-05-17T14:10:06.851Z,8.55
2019-05-17T14:12:35.514Z,8.70
2019-05-17T14:15:06.759Z,9.78
2019-05-17T14:17:35.603Z,9.50
2019-05-17T14:20:05.137Z,9.85
2019-05-17T14:22:35.999Z,9.15
2019-05-17T14:25:06.411Z,11.05
2019-05-17T14:27:35.134Z,10.38
2019-05-17T14:30:07.383Z,11.30
2019-05-17T14:32:37.204Z,10.50
2019-05-17T14:35:06.369Z,11.85
2019-05-17T14:37:35.348Z,9.95
2019-05-17T14:40:06.764Z,10.05
2019-05-17T14:42:35.456Z,10.58
2019-05-17T14:45:06.109Z,11.97
2019-05-17T14:47:34.922Z,11.85
2019-05-17T14:50:04.759Z,11.63
2019-05-17T14:52:33.890Z,11.15
2019-05-17T14:55:02.789Z,11.20
2019-05-17T14:57:31.598Z,12.37
2019-05-17T15:00:00.320Z,10.93
2019-05-17T15:02:29.084Z,12.53
2019-05-17T15:04:58.797Z,11.38
2019-05-17T15:07:27.456Z,11.20
2019-05-17T15:09:56.363Z,12.58
2019-05-17T15:12:28.498Z,12.07
2019-05-17T15:14:55.462Z,12.65
2019-05-17T15:17:24.232Z,12.43
2019-05-17T15:19:53.020Z,13.93
2019-05-17T15:22:21.634Z,12.95
2019-05-17T15:24:50.448Z,12.15
2019-05-17T15:27:19.121Z,13.48
2019-05-17T15:29:47.838Z,11.95
2019-05-17T15:32:16.602Z,13.48
2019-05-17T15:34:45.237Z,12.00
2019-05-17T15:37:13.945Z,12.43
2019-05-17T15:39:42.794Z,12.75
2019-05-17T15:42:11.736Z,12.80
2019-05-17T15:44:40.540Z,11.57
2019-05-17T15:47:09.298Z,11.78
2019-05-17T15:49:38.102Z,11.63
2019-05-17T15:52:06.863Z,11.90
2019-05-17T15:54:35.707Z,12.43
2019-05-17T15:57:04.564Z,13.45
2019-05-17T15:59:33.317Z,12.63
2019-05-17T16:02:02.213Z,13.70
2019-05-17T16:04:31.078Z,13.08
2019-05-17T16:07:00.824Z,12.88
2019-05-17T16:09:29.610Z,12.98
2019-05-17T16:11:58.317Z,12.90
2019-05-17T16:14:27.065Z,13.43
2019-05-17T16:16:55.837Z,14.05
2019-05-17T16:19:25.646Z,14.38
2019-05-17T16:21:54.976Z,19.10
2019-05-17T16:24:23.859Z,13.43
2019-05-17T16:26:52.713Z,13.40
2019-05-17T16:29:21.473Z,12.70
2019-05-17T16:32:02.885Z,13.32
2019-05-17T16:34:31.499Z,13.28
2019-05-17T16:37:00.296Z,13.40
2019-05-17T16:39:29.133Z,13.38
2019-05-17T16:42:00.268Z,12.90
2019-05-17T16:44:28.968Z,13.45
2019-05-17T16:46:57.747Z,13.32
2019-05-17T16:49:28.520Z,11.90
2019-05-17T16:51:56.895Z,13.00
2019-05-17T16:54:25.669Z,13.55
2019-05-17T16:56:54.289Z,13.88
2019-05-17T16:59:22.989Z,12.88
2019-05-17T17:01:51.798Z,14.78
2019-05-17T17:04:20.456Z,14.80
2019-05-17T17:06:49.220Z,17.35
2019-05-17T17:09:18.038Z,15.53
2019-05-17T17:11:46.816Z,14.05
2019-05-17T17:14:15.614Z,13.32
2019-05-17T17:16:44.567Z,13.58
2019-05-17T17:19:13.318Z,13.15
2019-05-17T17:21:42.005Z,13.65
2019-05-17T17:24:10.710Z,14.20
2019-05-17T17:26:39.481Z,13.22
2019-05-17T17:29:08.165Z,13.80
2019-05-17T17:31:36.870Z,14.25
2019-05-17T17:34:05.625Z,13.50
2019-05-17T17:36:34.268Z,13.68
2019-05-17T17:39:04.588Z,13.35
2019-05-17T17:41:33.297Z,13.43
2019-05-17T17:44:02.155Z,13.68
2019-05-17T17:46:30.841Z,13.48
2019-05-17T17:48:59.581Z,12.65
2019-05-17T17:51:28.289Z,13.88
2019-05-17T17:53:56.981Z,13.38
2019-05-17T17:56:25.693Z,12.60
2019-05-17T17:58:54.379Z,13.08
2019-05-17T18:01:23.086Z,13.35
2019-05-17T18:03:51.766Z,13.90
2019-05-17T18:06:20.507Z,13.25
2019-05-17T18:08:49.249Z,13.80
2019-05-17T18:11:17.993Z,13.45
2019-05-17T18:13:46.747Z,11.60
2019-05-17T18:16:15.465Z,11.90
2019-05-17T18:18:44.165Z,11.43
2019-05-17T18:21:12.948Z,12.47
2019-05-17T18:23:41.632Z,12.07
2019-05-17T18:26:11.238Z,12.35
2019-05-17T18:28:39.953Z,13.10
2019-05-17T18:31:08.772Z,12.15
2019-05-17T18:33:37.383Z,12.40
2019-05-17T18:36:06.132Z,12.82
2019-05-17T18:38:36.198Z,13.22
2019-05-17T18:41:04.929Z,12.95
2019-05-17T18:43:33.702Z,13.48
2019-05-17T18:46:02.510Z,13.10
2019-05-17T18:48:31.282Z,11.48
2019-05-17T18:51:00.049Z,12.23
2019-05-17T18:53:28.755Z,11.88
2019-05-17T18:55:57.364Z,12.10
2019-05-17T18:58:26.109Z,11.60
2019-05-17T19:00:54.788Z,12.03
2019-05-17T19:03:23.544Z,11.43
2019-05-17T19:08:20.977Z,11.35
2019-05-17T19:10:49.746Z,12.25
2019-05-17T19:13:18.535Z,11.80
2019-05-17T19:15:47.312Z,12.95
2019-05-17T19:18:16.177Z,13.00
2019-05-17T19:20:45.008Z,12.63
2019-05-17T19:23:13.760Z,13.08
2019-05-17T19:25:42.451Z,12.13
2019-05-17T19:28:11.224Z,12.30
2019-05-17T19:30:39.968Z,11.97
2019-05-17T19:33:09.045Z,11.50
2019-05-17T19:35:37.678Z,12.60
2019-05-17T19:38:06.385Z,11.68
2019-05-17T19:40:35.097Z,12.70
2019-05-17T19:43:03.798Z,12.55
2019-05-17T19:45:34.578Z,12.58
2019-05-17T19:48:03.310Z,12.33
2019-05-17T19:50:33.064Z,12.65
2019-05-17T19:53:01.761Z,13.28
2019-05-17T19:55:33.235Z,13.40
2019-05-17T19:58:01.040Z,13.68
2019-05-17T20:00:29.791Z,13.80
2019-05-17T20:02:58.691Z,13.45
2019-05-17T20:05:27.504Z,13.55
2019-05-17T20:07:56.412Z,14.50
2019-05-17T20:10:25.209Z,14.95
2019-05-17T20:12:53.983Z,14.47
2019-05-17T20:15:34.209Z,14.75
2019-05-17T20:17:53.350Z,13.10
2019-05-17T20:20:22.317Z,14.70
2019-05-17T20:22:51.055Z,14.90
2019-05-17T20:25:20.063Z,14.47
2019-05-17T20:27:48.792Z,15.95
2019-05-17T20:30:17.740Z,14.70
2019-05-17T20:32:46.525Z,14.98
2019-05-17T20:35:17.921Z,16.02
2019-05-17T20:37:45.600Z,15.20
2019-05-17T20:40:14.572Z,14.07
2019-05-17T20:42:43.452Z,15.03
2019-05-17T20:45:12.164Z,14.95
2019-05-17T20:47:40.933Z,14.80
2019-05-17T20:50:10.294Z,15.95
2019-05-17T20:52:39.204Z,15.08
2019-05-17T20:55:08.684Z,14.90
2019-05-17T20:57:37.318Z,14.65
2019-05-17T21:00:09.912Z,15.43
2019-05-17T21:02:38.740Z,14.95
2019-05-17T21:05:07.878Z,14.87
2019-05-17T21:07:36.650Z,14.83
2019-05-17T21:10:06.400Z,16.60
2019-05-17T21:12:35.222Z,15.60
2019-05-17T21:15:05.896Z,16.12
2019-05-17T21:17:34.703Z,15.60
2019-05-17T21:20:04.089Z,15.65
2019-05-17T21:22:32.817Z,15.90
2019-05-17T21:25:01.604Z,15.58
2019-05-17T21:27:30.392Z,16.62
2019-05-17T21:29:59.253Z,17.48
2019-05-17T21:32:27.896Z,18.20
2019-05-17T21:34:56.605Z,17.85
2019-05-17T21:37:25.357Z,19.50
2019-05-17T21:39:54.229Z,18.25
2019-05-17T21:42:22.885Z,18.37
2019-05-17T21:44:51.705Z,19.15
2019-05-17T21:47:20.528Z,19.02
2019-05-17T21:49:49.240Z,21.00
2019-05-17T21:52:18.071Z,23.45
2019-05-17T21:54:46.833Z,24.12
2019-05-17T21:57:15.515Z,25.25
2019-05-17T21:59:44.336Z,22.65
2019-05-17T22:02:13.176Z,22.82
2019-05-17T22:04:41.996Z,22.50
2019-05-17T22:07:10.701Z,19.87
2019-05-17T22:09:39.451Z,20.72
2019-05-17T22:12:12.605Z,21.20
2019-05-17T22:14:41.446Z,22.07
2019-05-17T22:17:11.009Z,23.00
2019-05-17T22:19:39.772Z,29.90
2019-05-17T22:22:08.565Z,27.48
2019-05-17T22:24:37.175Z,25.68
2019-05-17T22:27:05.814Z,26.70
2019-05-17T22:29:34.543Z,29.32
2019-05-17T22:32:03.271Z,25.65
2019-05-17T22:34:32.012Z,24.75
2019-05-17T22:37:00.631Z,24.37
2019-05-17T22:39:29.253Z,21.55
2019-05-17T22:41:57.991Z,19.37
2019-05-17T22:44:26.609Z,20.15
2019-05-17T22:46:55.230Z,20.02
2019-05-17T22:49:24.072Z,20.92
2019-05-17T22:51:52.712Z,19.95
2019-05-17T22:54:21.430Z,21.42
2019-05-17T22:56:50.033Z,21.57
2019-05-17T22:59:18.685Z,20.65
2019-05-17T23:01:47.325Z,21.25
2019-05-17T23:04:16.317Z,21.30
2019-05-17T23:06:44.960Z,22.55
2019-05-17T23:09:13.650Z,23.05
2019-05-17T23:11:42.361Z,23.57
2019-05-17T23:14:11.004Z,25.12
2019-05-17T23:16:50.889Z,26.50
2019-05-17T23:19:10.795Z,26.97
2019-05-17T23:21:39.606Z,25.90
2019-05-17T23:24:08.624Z,23.57
2019-05-17T23:26:37.306Z,22.98
2019-05-17T23:29:06.120Z,22.65
2019-05-17T23:31:34.747Z,22.48
2019-05-17T23:34:03.421Z,22.60
2019-05-17T23:36:32.134Z,22.90
2019-05-17T23:39:00.933Z,23.50
2019-05-17T23:41:29.564Z,23.83
2019-05-17T23:43:58.303Z,23.07
2019-05-17T23:46:27.008Z,22.55
2019-05-17T23:48:55.731Z,21.62
2019-05-17T23:51:24.398Z,22.17
2019-05-17T23:53:53.207Z,21.97
2019-05-17T23:56:21.815Z,21.77
2019-05-17T23:58:50.617Z,22.32
